sensor_id;sensor_type;location;lat;lon;timestamp;temperature;humidity
40638;DHT22;26336;44.696;10.622;2023-05-02T00:00:07;14.10;99.90
40638;DHT22;26336;44.696;10.622;2023-05-02T00:03:11;14.00;99.90
40638;DHT22;26336;44.696;10.622;2023-05-02T00:06:15;14.00;99.90
40638;DHT22;26336;44.696;10.622;2023-05-02T00:09:19;14.10;99.90
40638;DHT22;26336;44.696;10.622;2023-05-02T00:12:24;14.10;99.90
40638;DHT22;26336;44.696;10.622;2023-05-02T00:15:27;14.10;99.90
40638;DHT22;26336;44.696;10.622;2023-05-02T00:18:31;14.10;99.90
40638;DHT22;26336;44.696;10.622;2023-05-02T00:21:37;14.00;99.90
40638;DHT22;26336;44.696;10.622;2023-05-02T00:24:40;14.00;99.90
40638;DHT22;26336;44.696;10.622;2023-05-02T00:27:44;14.00;99.90
40638;DHT22;26336;44.696;10.622;2023-05-02T00:30:49;14.00;99.90
40638;DHT22;26336;44.696;10.622;2023-05-02T00:33:52;14.00;99.90
40638;DHT22;26336;44.696;10.622;2023-05-02T00:36:56;14.00;99.90
40638;DHT22;26336;44.696;10.622;2023-05-02T00:40:00;14.00;99.90
40638;DHT22;26336;44.696;10.622;2023-05-02T00:43:04;14.00;99.90
40638;DHT22;26336;44.696;10.622;2023-05-02T00:46:08;14.00;99.90
40638;DHT22;26336;44.696;10.622;2023-05-02T00:49:14;14.00;99.90
40638;DHT22;26336;44.696;10.622;2023-05-02T00:52:18;14.00;99.90
40638;DHT22;26336;44.696;10.622;2023-05-02T00:55:23;14.00;99.90
40638;DHT22;26336;44.696;10.622;2023-05-02T00:58:27;14.00;99.90
40638;DHT22;26336;44.696;10.622;2023-05-02T01:11:10;14.00;99.90
40638;DHT22;26336;44.696;10.622;2023-05-02T01:14:17;14.00;99.90
40638;DHT22;26336;44.696;10.622;2023-05-02T01:17:23;14.00;99.90
40638;DHT22;26336;44.696;10.622;2023-05-02T01:20:28;14.00;99.90
40638;DHT22;26336;44.696;10.622;2023-05-02T01:29:49;14.00;99.90
40638;DHT22;26336;44.696;10.622;2023-05-02T01:32:54;14.00;99.90
40638;DHT22;26336;44.696;10.622;2023-05-02T01:35:59;14.00;99.90
40638;DHT22;26336;44.696;10.622;2023-05-02T01:39:03;14.00;99.90
40638;DHT22;26336;44.696;10.622;2023-05-02T01:42:10;14.00;99.90
40638;DHT22;26336;44.696;10.622;2023-05-02T01:45:15;14.00;99.90
40638;DHT22;26336;44.696;10.622;2023-05-02T01:48:19;14.00;99.90
40638;DHT22;26336;44.696;10.622;2023-05-02T01:51:26;14.00;99.90
40638;DHT22;26336;44.696;10.622;2023-05-02T01:54:33;14.00;99.90
40638;DHT22;26336;44.696;10.622;2023-05-02T01:57:38;14.00;99.90
40638;DHT22;26336;44.696;10.622;2023-05-02T02:00:42;14.00;99.90
40638;DHT22;26336;44.696;10.622;2023-05-02T02:03:48;13.90;99.90
40638;DHT22;26336;44.696;10.622;2023-05-02T02:06:53;13.90;99.90
40638;DHT22;26336;44.696;10.622;2023-05-02T02:09:58;13.90;99.90
40638;DHT22;26336;44.696;10.622;2023-05-02T02:13:06;13.90;99.90
40638;DHT22;26336;44.696;10.622;2023-05-02T02:16:18;13.90;99.90
40638;DHT22;26336;44.696;10.622;2023-05-02T02:19:24;13.90;99.90
40638;DHT22;26336;44.696;10.622;2023-05-02T02:22:28;13.90;99.90
40638;DHT22;26336;44.696;10.622;2023-05-02T02:25:33;13.90;99.90
40638;DHT22;26336;44.696;10.622;2023-05-02T02:28:38;13.90;99.90
40638;DHT22;26336;44.696;10.622;2023-05-02T02:31:42;13.90;99.90
40638;DHT22;26336;44.696;10.622;2023-05-02T02:34:46;13.90;99.90
40638;DHT22;26336;44.696;10.622;2023-05-02T02:40:59;13.90;99.90
40638;DHT22;26336;44.696;10.622;2023-05-02T02:48:01;13.90;99.90
40638;DHT22;26336;44.696;10.622;2023-05-02T02:57:15;13.80;99.90
40638;DHT22;26336;44.696;10.622;2023-05-02T03:00:21;13.90;99.90
40638;DHT22;26336;44.696;10.622;2023-05-02T03:03:34;13.90;99.90
40638;DHT22;26336;44.696;10.622;2023-05-02T03:06:42;13.90;99.90
40638;DHT22;26336;44.696;10.622;2023-05-02T03:09:47;13.80;99.90
40638;DHT22;26336;44.696;10.622;2023-05-02T03:13:00;13.80;99.90
40638;DHT22;26336;44.696;10.622;2023-05-02T03:16:11;13.80;99.90
40638;DHT22;26336;44.696;10.622;2023-05-02T03:19:27;13.80;99.90
40638;DHT22;26336;44.696;10.622;2023-05-02T03:22:35;13.80;99.90
40638;DHT22;26336;44.696;10.622;2023-05-02T03:25:40;13.80;99.90
40638;DHT22;26336;44.696;10.622;2023-05-02T03:28:48;13.80;99.90
40638;DHT22;26336;44.696;10.622;2023-05-02T03:31:57;13.80;99.90
40638;DHT22;26336;44.696;10.622;2023-05-02T03:38:33;13.80;99.90
40638;DHT22;26336;44.696;10.622;2023-05-02T03:41:42;13.80;99.90
40638;DHT22;26336;44.696;10.622;2023-05-02T03:44:52;13.80;99.90
40638;DHT22;26336;44.696;10.622;2023-05-02T03:48:04;13.70;99.90
40638;DHT22;26336;44.696;10.622;2023-05-02T03:51:08;13.70;99.90
40638;DHT22;26336;44.696;10.622;2023-05-02T03:54:17;13.70;99.90
40638;DHT22;26336;44.696;10.622;2023-05-02T03:57:22;13.70;99.90
40638;DHT22;26336;44.696;10.622;2023-05-02T04:00:28;13.70;99.90
40638;DHT22;26336;44.696;10.622;2023-05-02T04:03:39;13.70;99.90
40638;DHT22;26336;44.696;10.622;2023-05-02T04:06:46;13.70;99.90
40638;DHT22;26336;44.696;10.622;2023-05-02T04:09:50;13.60;99.90
40638;DHT22;26336;44.696;10.622;2023-05-02T04:12:59;13.70;99.90
40638;DHT22;26336;44.696;10.622;2023-05-02T04:16:08;13.50;99.90
40638;DHT22;26336;44.696;10.622;2023-05-02T04:19:14;13.60;99.90
40638;DHT22;26336;44.696;10.622;2023-05-02T04:22:19;13.60;99.90
40638;DHT22;26336;44.696;10.622;2023-05-02T04:25:29;13.60;99.90
40638;DHT22;26336;44.696;10.622;2023-05-02T04:28:37;13.60;99.90
40638;DHT22;26336;44.696;10.622;2023-05-02T04:31:42;13.60;99.90
40638;DHT22;26336;44.696;10.622;2023-05-02T04:34:47;13.60;99.90
40638;DHT22;26336;44.696;10.622;2023-05-02T04:37:52;13.60;99.90
40638;DHT22;26336;44.696;10.622;2023-05-02T04:40:56;13.60;99.90
40638;DHT22;26336;44.696;10.622;2023-05-02T04:44:08;13.60;99.90
40638;DHT22;26336;44.696;10.622;2023-05-02T04:47:13;13.70;99.90
40638;DHT22;26336;44.696;10.622;2023-05-02T04:50:20;13.60;99.90
40638;DHT22;26336;44.696;10.622;2023-05-02T04:53:28;13.60;99.90
40638;DHT22;26336;44.696;10.622;2023-05-02T04:56:32;13.60;99.90
40638;DHT22;26336;44.696;10.622;2023-05-02T04:59:36;13.60;99.90
40638;DHT22;26336;44.696;10.622;2023-05-02T05:02:42;13.70;99.90
40638;DHT22;26336;44.696;10.622;2023-05-02T05:05:48;13.60;99.90
40638;DHT22;26336;44.696;10.622;2023-05-02T05:08:54;13.60;99.90
40638;DHT22;26336;44.696;10.622;2023-05-02T05:11:59;13.60;99.90
40638;DHT22;26336;44.696;10.622;2023-05-02T05:15:05;13.60;99.90
40638;DHT22;26336;44.696;10.622;2023-05-02T05:18:10;13.60;99.90
40638;DHT22;26336;44.696;10.622;2023-05-02T05:21:14;13.70;99.90
40638;DHT22;26336;44.696;10.622;2023-05-02T05:24:19;13.70;99.90
40638;DHT22;26336;44.696;10.622;2023-05-02T05:27:23;13.70;99.90
40638;DHT22;26336;44.696;10.622;2023-05-02T05:30:27;13.70;99.90
40638;DHT22;26336;44.696;10.622;2023-05-02T05:33:36;13.70;99.90
40638;DHT22;26336;44.696;10.622;2023-05-02T05:36:41;13.60;99.90
40638;DHT22;26336;44.696;10.622;2023-05-02T05:39:45;13.70;99.90
40638;DHT22;26336;44.696;10.622;2023-05-02T05:42:49;13.70;99.90
40638;DHT22;26336;44.696;10.622;2023-05-02T05:46:00;13.70;99.90
40638;DHT22;26336;44.696;10.622;2023-05-02T05:49:06;13.70;99.90
40638;DHT22;26336;44.696;10.622;2023-05-02T05:52:12;13.60;99.90
40638;DHT22;26336;44.696;10.622;2023-05-02T05:55:16;13.60;99.90
40638;DHT22;26336;44.696;10.622;2023-05-02T05:58:20;13.60;99.90
40638;DHT22;26336;44.696;10.622;2023-05-02T06:01:26;13.60;99.90
40638;DHT22;26336;44.696;10.622;2023-05-02T06:04:30;13.60;99.90
40638;DHT22;26336;44.696;10.622;2023-05-02T06:07:34;13.60;99.90
40638;DHT22;26336;44.696;10.622;2023-05-02T06:10:39;13.60;99.90
40638;DHT22;26336;44.696;10.622;2023-05-02T06:13:42;13.70;99.90
40638;DHT22;26336;44.696;10.622;2023-05-02T06:16:47;13.60;99.90
40638;DHT22;26336;44.696;10.622;2023-05-02T06:19:59;13.70;99.90
40638;DHT22;26336;44.696;10.622;2023-05-02T06:23:03;13.70;99.90
40638;DHT22;26336;44.696;10.622;2023-05-02T06:26:07;13.70;99.90
40638;DHT22;26336;44.696;10.622;2023-05-02T06:29:12;13.70;99.90
40638;DHT22;26336;44.696;10.622;2023-05-02T06:32:16;13.70;99.90
40638;DHT22;26336;44.696;10.622;2023-05-02T06:35:20;13.70;99.90
40638;DHT22;26336;44.696;10.622;2023-05-02T06:38:24;13.70;99.90
40638;DHT22;26336;44.696;10.622;2023-05-02T06:41:28;13.70;99.90
40638;DHT22;26336;44.696;10.622;2023-05-02T06:44:32;13.70;99.90
40638;DHT22;26336;44.696;10.622;2023-05-02T06:47:36;13.70;99.90
40638;DHT22;26336;44.696;10.622;2023-05-02T06:50:40;13.70;99.90
40638;DHT22;26336;44.696;10.622;2023-05-02T06:57:16;13.70;99.90
40638;DHT22;26336;44.696;10.622;2023-05-02T07:00:20;13.80;99.90
40638;DHT22;26336;44.696;10.622;2023-05-02T07:03:26;13.80;99.90
40638;DHT22;26336;44.696;10.622;2023-05-02T07:06:32;13.80;99.90
40638;DHT22;26336;44.696;10.622;2023-05-02T07:09:39;13.80;99.90
40638;DHT22;26336;44.696;10.622;2023-05-02T07:12:48;13.80;99.90
40638;DHT22;26336;44.696;10.622;2023-05-02T07:15:52;13.80;99.90
40638;DHT22;26336;44.696;10.622;2023-05-02T07:18:56;13.80;99.90
40638;DHT22;26336;44.696;10.622;2023-05-02T07:22:00;13.90;99.90
40638;DHT22;26336;44.696;10.622;2023-05-02T07:25:05;13.80;99.90
40638;DHT22;26336;44.696;10.622;2023-05-02T07:28:09;13.90;99.90
40638;DHT22;26336;44.696;10.622;2023-05-02T07:31:13;13.90;99.90
40638;DHT22;26336;44.696;10.622;2023-05-02T07:34:17;13.90;99.90
40638;DHT22;26336;44.696;10.622;2023-05-02T07:37:21;13.90;99.90
40638;DHT22;26336;44.696;10.622;2023-05-02T07:40:28;13.90;99.90
40638;DHT22;26336;44.696;10.622;2023-05-02T07:43:32;13.90;99.90
40638;DHT22;26336;44.696;10.622;2023-05-02T07:46:37;13.90;99.90
40638;DHT22;26336;44.696;10.622;2023-05-02T07:49:41;14.00;99.90
40638;DHT22;26336;44.696;10.622;2023-05-02T07:52:46;14.00;99.90
40638;DHT22;26336;44.696;10.622;2023-05-02T07:55:50;14.00;99.90
40638;DHT22;26336;44.696;10.622;2023-05-02T07:58:54;14.00;99.90
40638;DHT22;26336;44.696;10.622;2023-05-02T08:01:58;14.00;99.90
40638;DHT22;26336;44.696;10.622;2023-05-02T08:05:02;14.10;99.90
40638;DHT22;26336;44.696;10.622;2023-05-02T08:08:06;14.10;99.90
40638;DHT22;26336;44.696;10.622;2023-05-02T08:11:10;14.10;99.90
40638;DHT22;26336;44.696;10.622;2023-05-02T08:14:14;14.20;99.90
40638;DHT22;26336;44.696;10.622;2023-05-02T08:17:18;14.20;99.90
40638;DHT22;26336;44.696;10.622;2023-05-02T08:20:22;14.20;99.90
40638;DHT22;26336;44.696;10.622;2023-05-02T08:23:26;14.20;99.90
40638;DHT22;26336;44.696;10.622;2023-05-02T08:26:30;14.20;99.90
40638;DHT22;26336;44.696;10.622;2023-05-02T08:29:34;14.20;99.90
40638;DHT22;26336;44.696;10.622;2023-05-02T08:32:38;14.20;99.90
40638;DHT22;26336;44.696;10.622;2023-05-02T08:35:42;14.20;99.90
40638;DHT22;26336;44.696;10.622;2023-05-02T08:38:46;14.20;99.90
40638;DHT22;26336;44.696;10.622;2023-05-02T08:41:49;14.30;99.90
40638;DHT22;26336;44.696;10.622;2023-05-02T08:44:54;14.20;99.90
40638;DHT22;26336;44.696;10.622;2023-05-02T08:47:58;14.30;99.90
40638;DHT22;26336;44.696;10.622;2023-05-02T08:51:02;14.30;99.90
40638;DHT22;26336;44.696;10.622;2023-05-02T08:54:08;14.30;99.90
40638;DHT22;26336;44.696;10.622;2023-05-02T08:57:12;14.30;99.90
40638;DHT22;26336;44.696;10.622;2023-05-02T09:00:16;14.40;99.90
40638;DHT22;26336;44.696;10.622;2023-05-02T09:03:31;14.40;99.90
40638;DHT22;26336;44.696;10.622;2023-05-02T09:06:35;14.40;99.90
40638;DHT22;26336;44.696;10.622;2023-05-02T09:09:39;14.40;99.90
40638;DHT22;26336;44.696;10.622;2023-05-02T09:12:43;14.40;99.90
40638;DHT22;26336;44.696;10.622;2023-05-02T09:16:02;14.30;99.90
40638;DHT22;26336;44.696;10.622;2023-05-02T09:19:06;14.30;99.90
40638;DHT22;26336;44.696;10.622;2023-05-02T09:22:10;14.30;99.90
40638;DHT22;26336;44.696;10.622;2023-05-02T09:25:14;14.30;99.90
40638;DHT22;26336;44.696;10.622;2023-05-02T09:28:19;14.40;99.90
40638;DHT22;26336;44.696;10.622;2023-05-02T09:31:26;14.40;99.90
40638;DHT22;26336;44.696;10.622;2023-05-02T09:34:33;14.40;99.90
40638;DHT22;26336;44.696;10.622;2023-05-02T09:37:37;14.40;99.90
40638;DHT22;26336;44.696;10.622;2023-05-02T09:40:52;14.40;99.90
40638;DHT22;26336;44.696;10.622;2023-05-02T09:43:56;14.40;99.90
40638;DHT22;26336;44.696;10.622;2023-05-02T09:47:00;14.40;99.90
40638;DHT22;26336;44.696;10.622;2023-05-02T09:50:05;14.40;99.90
40638;DHT22;26336;44.696;10.622;2023-05-02T09:53:11;14.40;99.90
40638;DHT22;26336;44.696;10.622;2023-05-02T09:56:15;14.50;99.90
40638;DHT22;26336;44.696;10.622;2023-05-02T09:59:19;14.50;99.90
40638;DHT22;26336;44.696;10.622;2023-05-02T10:02:24;14.50;99.90
40638;DHT22;26336;44.696;10.622;2023-05-02T10:05:33;14.50;99.90
40638;DHT22;26336;44.696;10.622;2023-05-02T10:08:42;14.50;99.90
40638;DHT22;26336;44.696;10.622;2023-05-02T10:11:51;14.50;99.90
40638;DHT22;26336;44.696;10.622;2023-05-02T10:14:57;14.50;99.90
40638;DHT22;26336;44.696;10.622;2023-05-02T10:18:04;14.50;99.90
40638;DHT22;26336;44.696;10.622;2023-05-02T10:21:14;14.50;99.90
40638;DHT22;26336;44.696;10.622;2023-05-02T10:24:19;14.60;99.90
40638;DHT22;26336;44.696;10.622;2023-05-02T10:27:23;14.50;99.90
40638;DHT22;26336;44.696;10.622;2023-05-02T10:30:27;14.60;99.90
40638;DHT22;26336;44.696;10.622;2023-05-02T10:33:32;14.60;99.90
40638;DHT22;26336;44.696;10.622;2023-05-02T10:36:36;14.60;99.90
40638;DHT22;26336;44.696;10.622;2023-05-02T10:39:40;14.50;99.90
40638;DHT22;26336;44.696;10.622;2023-05-02T10:42:45;14.50;99.90
40638;DHT22;26336;44.696;10.622;2023-05-02T10:45:49;14.60;99.90
40638;DHT22;26336;44.696;10.622;2023-05-02T10:49:00;14.60;99.90
40638;DHT22;26336;44.696;10.622;2023-05-02T10:52:24;14.70;99.90
40638;DHT22;26336;44.696;10.622;2023-05-02T10:55:28;14.70;99.90
40638;DHT22;26336;44.696;10.622;2023-05-02T10:58:32;14.70;99.90
40638;DHT22;26336;44.696;10.622;2023-05-02T11:01:36;14.70;99.90
40638;DHT22;26336;44.696;10.622;2023-05-02T11:05:02;14.70;99.90
40638;DHT22;26336;44.696;10.622;2023-05-02T11:11:39;14.70;99.90
40638;DHT22;26336;44.696;10.622;2023-05-02T11:14:46;14.70;99.90
40638;DHT22;26336;44.696;10.622;2023-05-02T11:24:36;14.70;99.90
40638;DHT22;26336;44.696;10.622;2023-05-02T11:27:40;14.70;99.90
40638;DHT22;26336;44.696;10.622;2023-05-02T11:30:46;14.70;99.90
40638;DHT22;26336;44.696;10.622;2023-05-02T11:33:58;14.70;99.90
40638;DHT22;26336;44.696;10.622;2023-05-02T11:37:09;14.80;99.90
40638;DHT22;26336;44.696;10.622;2023-05-02T11:40:13;14.80;99.90
40638;DHT22;26336;44.696;10.622;2023-05-02T11:43:17;14.80;99.90
40638;DHT22;26336;44.696;10.622;2023-05-02T11:46:21;14.80;99.90
40638;DHT22;26336;44.696;10.622;2023-05-02T11:49:25;14.80;99.90
40638;DHT22;26336;44.696;10.622;2023-05-02T11:52:30;14.80;99.90
40638;DHT22;26336;44.696;10.622;2023-05-02T11:55:49;14.80;99.90
40638;DHT22;26336;44.696;10.622;2023-05-02T11:58:57;14.80;99.90
40638;DHT22;26336;44.696;10.622;2023-05-02T12:02:01;14.70;99.90
40638;DHT22;26336;44.696;10.622;2023-05-02T12:05:11;14.70;99.90
40638;DHT22;26336;44.696;10.622;2023-05-02T12:11:26;14.60;99.90
40638;DHT22;26336;44.696;10.622;2023-05-02T12:14:32;14.60;99.90
40638;DHT22;26336;44.696;10.622;2023-05-02T12:17:42;14.60;99.90
40638;DHT22;26336;44.696;10.622;2023-05-02T12:20:48;14.60;99.90
40638;DHT22;26336;44.696;10.622;2023-05-02T12:23:52;14.60;99.90
40638;DHT22;26336;44.696;10.622;2023-05-02T12:27:12;14.70;99.90
40638;DHT22;26336;44.696;10.622;2023-05-02T12:30:25;14.70;99.90
40638;DHT22;26336;44.696;10.622;2023-05-02T12:33:40;14.70;99.90
40638;DHT22;26336;44.696;10.622;2023-05-02T12:36:47;14.80;99.90
40638;DHT22;26336;44.696;10.622;2023-05-02T12:39:51;14.80;99.90
40638;DHT22;26336;44.696;10.622;2023-05-02T12:43:00;14.70;99.90
40638;DHT22;26336;44.696;10.622;2023-05-02T12:46:11;14.70;99.90
40638;DHT22;26336;44.696;10.622;2023-05-02T12:49:18;14.70;99.90
40638;DHT22;26336;44.696;10.622;2023-05-02T12:55:45;14.60;99.90
40638;DHT22;26336;44.696;10.622;2023-05-02T12:58:52;14.50;99.90
40638;DHT22;26336;44.696;10.622;2023-05-02T13:01:58;14.50;99.90
40638;DHT22;26336;44.696;10.622;2023-05-02T13:05:12;14.50;99.90
40638;DHT22;26336;44.696;10.622;2023-05-02T13:08:19;14.50;99.90
40638;DHT22;26336;44.696;10.622;2023-05-02T13:11:23;14.50;99.90
40638;DHT22;26336;44.696;10.622;2023-05-02T13:14:27;14.50;99.90
40638;DHT22;26336;44.696;10.622;2023-05-02T13:17:31;14.40;99.90
40638;DHT22;26336;44.696;10.622;2023-05-02T13:20:35;14.40;99.90
40638;DHT22;26336;44.696;10.622;2023-05-02T13:23:39;14.40;99.90
40638;DHT22;26336;44.696;10.622;2023-05-02T13:26:43;14.50;99.90
40638;DHT22;26336;44.696;10.622;2023-05-02T13:29:48;14.50;99.90
40638;DHT22;26336;44.696;10.622;2023-05-02T13:32:58;14.50;99.90
40638;DHT22;26336;44.696;10.622;2023-05-02T13:36:12;14.60;99.90
40638;DHT22;26336;44.696;10.622;2023-05-02T13:39:37;14.50;99.90
40638;DHT22;26336;44.696;10.622;2023-05-02T13:42:45;14.40;99.90
40638;DHT22;26336;44.696;10.622;2023-05-02T13:45:49;14.40;99.90
40638;DHT22;26336;44.696;10.622;2023-05-02T13:48:54;14.40;99.90
40638;DHT22;26336;44.696;10.622;2023-05-02T13:51:58;14.30;99.90
40638;DHT22;26336;44.696;10.622;2023-05-02T13:55:03;14.30;99.90
40638;DHT22;26336;44.696;10.622;2023-05-02T13:58:07;14.30;99.90
40638;DHT22;26336;44.696;10.622;2023-05-02T14:01:17;14.30;99.90
40638;DHT22;26336;44.696;10.622;2023-05-02T14:04:21;14.30;99.90
40638;DHT22;26336;44.696;10.622;2023-05-02T14:07:25;14.40;99.90
40638;DHT22;26336;44.696;10.622;2023-05-02T14:10:29;14.40;99.90
40638;DHT22;26336;44.696;10.622;2023-05-02T14:13:33;14.40;99.90
40638;DHT22;26336;44.696;10.622;2023-05-02T14:16:38;14.40;99.90
40638;DHT22;26336;44.696;10.622;2023-05-02T14:19:45;14.40;99.90
40638;DHT22;26336;44.696;10.622;2023-05-02T14:22:52;14.40;99.90
40638;DHT22;26336;44.696;10.622;2023-05-02T14:25:56;14.40;99.90
40638;DHT22;26336;44.696;10.622;2023-05-02T14:29:00;14.40;99.90
40638;DHT22;26336;44.696;10.622;2023-05-02T14:32:04;14.40;99.90
40638;DHT22;26336;44.696;10.622;2023-05-02T14:35:11;14.40;99.90
40638;DHT22;26336;44.696;10.622;2023-05-02T14:38:15;14.40;99.90
40638;DHT22;26336;44.696;10.622;2023-05-02T14:41:19;14.40;99.90
40638;DHT22;26336;44.696;10.622;2023-05-02T14:44:24;14.40;99.90
40638;DHT22;26336;44.696;10.622;2023-05-02T14:54:28;14.30;99.90
40638;DHT22;26336;44.696;10.622;2023-05-02T14:57:32;14.30;99.90
40638;DHT22;26336;44.696;10.622;2023-05-02T15:00:37;14.40;99.90
40638;DHT22;26336;44.696;10.622;2023-05-02T15:03:40;14.40;99.90
40638;DHT22;26336;44.696;10.622;2023-05-02T15:06:44;14.40;99.90
40638;DHT22;26336;44.696;10.622;2023-05-02T15:09:50;14.40;99.90
40638;DHT22;26336;44.696;10.622;2023-05-02T15:12:54;14.40;99.90
40638;DHT22;26336;44.696;10.622;2023-05-02T15:15:58;14.40;99.90
40638;DHT22;26336;44.696;10.622;2023-05-02T15:19:02;14.40;99.90
40638;DHT22;26336;44.696;10.622;2023-05-02T15:22:06;14.40;99.90
40638;DHT22;26336;44.696;10.622;2023-05-02T15:25:10;14.40;99.90
40638;DHT22;26336;44.696;10.622;2023-05-02T15:28:14;14.40;99.90
40638;DHT22;26336;44.696;10.622;2023-05-02T15:31:19;14.40;99.90
40638;DHT22;26336;44.696;10.622;2023-05-02T15:34:22;14.50;99.90
40638;DHT22;26336;44.696;10.622;2023-05-02T15:37:26;14.40;99.90
40638;DHT22;26336;44.696;10.622;2023-05-02T15:40:30;14.40;99.90
40638;DHT22;26336;44.696;10.622;2023-05-02T15:43:34;14.40;99.90
40638;DHT22;26336;44.696;10.622;2023-05-02T15:46:38;14.40;99.90
40638;DHT22;26336;44.696;10.622;2023-05-02T15:49:43;14.50;99.90
40638;DHT22;26336;44.696;10.622;2023-05-02T15:52:47;14.50;99.90
40638;DHT22;26336;44.696;10.622;2023-05-02T15:55:51;14.50;99.90
40638;DHT22;26336;44.696;10.622;2023-05-02T15:58:56;14.40;99.90
40638;DHT22;26336;44.696;10.622;2023-05-02T16:02:00;14.50;99.90
40638;DHT22;26336;44.696;10.622;2023-05-02T16:05:04;14.50;99.90
40638;DHT22;26336;44.696;10.622;2023-05-02T16:08:08;14.40;99.90
40638;DHT22;26336;44.696;10.622;2023-05-02T16:11:12;14.40;99.90
40638;DHT22;26336;44.696;10.622;2023-05-02T16:14:16;14.40;99.90
40638;DHT22;26336;44.696;10.622;2023-05-02T16:17:20;14.40;99.90
40638;DHT22;26336;44.696;10.622;2023-05-02T16:20:23;14.40;99.90
40638;DHT22;26336;44.696;10.622;2023-05-02T16:23:28;14.40;99.90
40638;DHT22;26336;44.696;10.622;2023-05-02T16:26:32;14.40;99.90
40638;DHT22;26336;44.696;10.622;2023-05-02T16:29:36;14.40;99.90
40638;DHT22;26336;44.696;10.622;2023-05-02T16:32:40;14.40;99.90
40638;DHT22;26336;44.696;10.622;2023-05-02T16:35:44;14.50;99.90
40638;DHT22;26336;44.696;10.622;2023-05-02T16:38:48;14.40;99.90
40638;DHT22;26336;44.696;10.622;2023-05-02T16:41:52;14.50;99.90
40638;DHT22;26336;44.696;10.622;2023-05-02T16:44:58;14.50;99.90
40638;DHT22;26336;44.696;10.622;2023-05-02T16:48:04;14.50;99.90
40638;DHT22;26336;44.696;10.622;2023-05-02T16:54:41;14.40;99.90
40638;DHT22;26336;44.696;10.622;2023-05-02T16:57:45;14.50;99.90
40638;DHT22;26336;44.696;10.622;2023-05-02T17:00:49;14.50;99.90
40638;DHT22;26336;44.696;10.622;2023-05-02T17:03:52;14.60;99.90
40638;DHT22;26336;44.696;10.622;2023-05-02T17:06:56;14.50;99.90
40638;DHT22;26336;44.696;10.622;2023-05-02T17:10:00;14.50;99.90
40638;DHT22;26336;44.696;10.622;2023-05-02T17:13:04;14.50;99.90
40638;DHT22;26336;44.696;10.622;2023-05-02T17:16:09;14.50;99.90
40638;DHT22;26336;44.696;10.622;2023-05-02T17:19:13;14.40;99.90
40638;DHT22;26336;44.696;10.622;2023-05-02T17:22:17;14.40;99.90
40638;DHT22;26336;44.696;10.622;2023-05-02T17:25:23;14.40;99.90
40638;DHT22;26336;44.696;10.622;2023-05-02T17:28:27;14.40;99.90
40638;DHT22;26336;44.696;10.622;2023-05-02T17:31:30;14.30;99.90
40638;DHT22;26336;44.696;10.622;2023-05-02T17:34:34;14.30;99.90
40638;DHT22;26336;44.696;10.622;2023-05-02T17:37:39;14.30;99.90
40638;DHT22;26336;44.696;10.622;2023-05-02T17:40:43;14.20;99.90
40638;DHT22;26336;44.696;10.622;2023-05-02T17:43:46;14.20;99.90
40638;DHT22;26336;44.696;10.622;2023-05-02T17:46:51;14.10;99.90
40638;DHT22;26336;44.696;10.622;2023-05-02T17:49:55;14.10;99.90
40638;DHT22;26336;44.696;10.622;2023-05-02T17:52:59;14.10;99.90
40638;DHT22;26336;44.696;10.622;2023-05-02T17:56:04;14.20;99.90
40638;DHT22;26336;44.696;10.622;2023-05-02T17:59:08;14.20;99.90
40638;DHT22;26336;44.696;10.622;2023-05-02T18:02:14;14.20;99.90
40638;DHT22;26336;44.696;10.622;2023-05-02T18:05:20;14.30;99.90
40638;DHT22;26336;44.696;10.622;2023-05-02T18:08:24;14.30;99.90
40638;DHT22;26336;44.696;10.622;2023-05-02T18:11:29;14.30;99.90
40638;DHT22;26336;44.696;10.622;2023-05-02T18:14:34;14.30;99.90
40638;DHT22;26336;44.696;10.622;2023-05-02T18:17:38;14.20;99.90
40638;DHT22;26336;44.696;10.622;2023-05-02T18:20:42;14.20;99.90
40638;DHT22;26336;44.696;10.622;2023-05-02T18:23:46;14.20;99.90
40638;DHT22;26336;44.696;10.622;2023-05-02T18:26:49;14.30;99.90
40638;DHT22;26336;44.696;10.622;2023-05-02T18:29:53;14.20;99.90
40638;DHT22;26336;44.696;10.622;2023-05-02T18:32:56;14.20;99.90
40638;DHT22;26336;44.696;10.622;2023-05-02T18:36:00;14.20;99.90
40638;DHT22;26336;44.696;10.622;2023-05-02T18:39:04;14.20;99.90
40638;DHT22;26336;44.696;10.622;2023-05-02T18:42:08;14.10;99.90
40638;DHT22;26336;44.696;10.622;2023-05-02T18:45:13;13.90;99.90
40638;DHT22;26336;44.696;10.622;2023-05-02T18:48:19;14.00;99.90
40638;DHT22;26336;44.696;10.622;2023-05-02T18:51:23;13.90;99.90
40638;DHT22;26336;44.696;10.622;2023-05-02T18:54:32;13.90;99.90
40638;DHT22;26336;44.696;10.622;2023-05-02T18:57:36;14.00;99.90
40638;DHT22;26336;44.696;10.622;2023-05-02T19:00:40;13.90;99.90
40638;DHT22;26336;44.696;10.622;2023-05-02T19:03:46;14.00;99.90
40638;DHT22;26336;44.696;10.622;2023-05-02T19:06:51;14.00;99.90
40638;DHT22;26336;44.696;10.622;2023-05-02T19:09:55;14.00;99.90
40638;DHT22;26336;44.696;10.622;2023-05-02T19:12:59;14.10;99.90
40638;DHT22;26336;44.696;10.622;2023-05-02T19:16:03;14.10;99.90
40638;DHT22;26336;44.696;10.622;2023-05-02T19:19:07;14.10;99.90
40638;DHT22;26336;44.696;10.622;2023-05-02T19:22:10;14.10;99.90
40638;DHT22;26336;44.696;10.622;2023-05-02T19:25:16;14.10;99.90
40638;DHT22;26336;44.696;10.622;2023-05-02T19:28:20;14.10;99.90
40638;DHT22;26336;44.696;10.622;2023-05-02T19:31:26;14.10;99.90
40638;DHT22;26336;44.696;10.622;2023-05-02T19:34:30;14.10;99.90
40638;DHT22;26336;44.696;10.622;2023-05-02T19:37:34;14.10;99.90
40638;DHT22;26336;44.696;10.622;2023-05-02T19:40:40;14.10;99.90
40638;DHT22;26336;44.696;10.622;2023-05-02T19:43:44;14.10;99.90
40638;DHT22;26336;44.696;10.622;2023-05-02T19:46:48;14.20;99.90
40638;DHT22;26336;44.696;10.622;2023-05-02T19:49:52;14.20;99.90
40638;DHT22;26336;44.696;10.622;2023-05-02T19:52:56;14.20;99.90
40638;DHT22;26336;44.696;10.622;2023-05-02T19:56:00;14.20;99.90
40638;DHT22;26336;44.696;10.622;2023-05-02T19:59:07;14.10;99.90
40638;DHT22;26336;44.696;10.622;2023-05-02T20:02:11;14.00;99.90
40638;DHT22;26336;44.696;10.622;2023-05-02T20:05:15;14.00;99.90
40638;DHT22;26336;44.696;10.622;2023-05-02T20:08:19;14.10;99.90
40638;DHT22;26336;44.696;10.622;2023-05-02T20:11:23;14.00;99.90
40638;DHT22;26336;44.696;10.622;2023-05-02T20:14:28;14.00;99.90